createdAt,value
2023-03-29T00:00:14.799Z,74.53
2023-03-29T00:05:22.920Z,74.55
2023-03-29T00:10:24.990Z,74.81
2023-03-29T00:15:27.872Z,74.97
2023-03-29T00:20:38.774Z,75.33
2023-03-29T00:25:49.994Z,75.54
2023-03-29T00:30:54.491Z,75.63
2023-03-29T00:35:56.504Z,75.63
2023-03-29T00:41:01.820Z,75.75
2023-03-29T00:46:04.517Z,75.99
2023-03-29T00:51:11.052Z,76.14
2023-03-29T00:56:27.735Z,76.25
2023-03-29T01:02:07.278Z,76.47
2023-03-29T01:07:54.938Z,76.52
2023-03-29T01:13:11.900Z,76.76
2023-03-29T01:18:16.922Z,77.00
2023-03-29T01:23:34.687Z,77.23
2023-03-29T01:28:55.643Z,77.50
2023-03-29T01:34:11.636Z,77.47
2023-03-29T01:39:19.043Z,77.51
2023-03-29T01:44:40.591Z,77.78
2023-03-29T01:49:59.826Z,77.98
2023-03-29T01:55:25.013Z,78.10
2023-03-29T02:00:29.760Z,78.18
2023-03-29T02:05:35.921Z,78.25
2023-03-29T02:10:38.396Z,78.35
2023-03-29T02:15:40.851Z,78.50
2023-03-29T02:20:47.386Z,78.71
2023-03-29T02:25:53.606Z,78.84
2023-03-29T02:31:14.814Z,78.92
2023-03-29T02:36:20.134Z,79.06
2023-03-29T02:41:24.690Z,79.20
2023-03-29T02:46:31.002Z,79.23
2023-03-29T02:51:34.993Z,79.21
2023-03-29T02:56:50.309Z,79.35
2023-03-29T03:01:53.716Z,79.53
2023-03-29T03:06:56.948Z,79.72
2023-03-29T03:12:00.331Z,79.86
2023-03-29T03:17:05.179Z,80.07
2023-03-29T03:22:09.928Z,80.15
2023-03-29T03:27:14.708Z,80.04
2023-03-29T03:32:17.613Z,79.94
2023-03-29T03:37:40.960Z,80.12
2023-03-29T03:42:44.044Z,80.11
2023-03-29T03:47:46.730Z,80.25
2023-03-29T03:53:02.622Z,80.22
2023-03-29T03:58:18.051Z,80.27
2023-03-29T04:03:24.135Z,80.34
2023-03-29T04:08:35.357Z,80.41
2023-03-29T04:13:48.279Z,80.22
2023-03-29T04:19:13.946Z,80.32
2023-03-29T04:24:23.977Z,80.32
2023-03-29T04:29:46.845Z,80.36
2023-03-29T04:34:58.140Z,80.46
2023-03-29T04:40:00.460Z,80.58
2023-03-29T04:45:07.151Z,80.75
2023-03-29T04:50:25.888Z,80.79
2023-03-29T04:55:28.269Z,80.88
2023-03-29T05:00:38.065Z,80.88
2023-03-29T05:06:10.632Z,80.98
2023-03-29T05:11:14.323Z,81.11
2023-03-29T05:16:30.258Z,81.09
2023-03-29T05:21:34.441Z,81.28
2023-03-29T05:26:40.577Z,81.23
2023-03-29T05:31:43.089Z,81.44
2023-03-29T05:36:46.379Z,81.29
2023-03-29T05:41:49.455Z,81.09
2023-03-29T05:47:15.556Z,81.01
2023-03-29T05:52:18.602Z,81.09
2023-03-29T05:57:21.082Z,80.82
2023-03-29T06:02:26.223Z,80.69
2023-03-29T06:07:29.956Z,80.34
2023-03-29T06:13:01.991Z,80.12
2023-03-29T06:18:07.740Z,79.92
2023-03-29T06:23:10.729Z,79.70
2023-03-29T06:28:15.674Z,79.36
2023-03-29T06:33:18.882Z,79.04
2023-03-29T06:38:28.633Z,79.05
2023-03-29T06:43:33.320Z,78.79
2023-03-29T06:48:48.729Z,78.76
2023-03-29T06:53:54.857Z,78.26
2023-03-29T06:58:57.393Z,77.92
2023-03-29T07:04:09.451Z,77.54
2023-03-29T07:09:36.431Z,76.68
2023-03-29T07:15:02.262Z,76.49
2023-03-29T07:20:27.257Z,75.78
2023-03-29T07:25:50.497Z,75.67
2023-03-29T07:31:12.537Z,75.71
2023-03-29T07:36:34.502Z,74.39
2023-03-29T07:41:46.116Z,73.28
2023-03-29T07:46:51.254Z,73.72
2023-03-29T07:52:30.107Z,72.96
2023-03-29T07:57:44.200Z,72.24
2023-03-29T08:03:32.645Z,71.87
2023-03-29T08:09:17.371Z,70.25
2023-03-29T08:14:38.557Z,69.55
2023-03-29T08:20:18.337Z,69.02
2023-03-29T08:25:45.505Z,68.60
2023-03-29T08:31:14.752Z,68.67
2023-03-29T08:36:55.917Z,67.91
2023-03-29T08:42:30.922Z,67.07
2023-03-29T08:48:12.464Z,66.82
2023-03-29T08:53:33.791Z,66.81
2023-03-29T08:58:48.021Z,65.90
2023-03-29T09:04:31.802Z,64.83
2023-03-29T09:10:11.492Z,63.80
2023-03-29T09:16:25.559Z,63.11
2023-03-29T09:22:30.650Z,62.24
2023-03-29T09:27:45.597Z,61.23
2023-03-29T09:33:45.092Z,59.99
2023-03-29T09:39:02.428Z,60.00
2023-03-29T09:44:31.300Z,60.20
2023-03-29T09:50:05.255Z,60.26
2023-03-29T09:55:40.184Z,59.50
2023-03-29T10:01:15.560Z,58.10
2023-03-29T10:06:32.709Z,58.33
2023-03-29T10:12:04.770Z,58.07
2023-03-29T10:17:38.037Z,57.29
2023-03-29T10:23:03.897Z,56.28
2023-03-29T10:28:16.220Z,55.75
2023-03-29T10:34:01.455Z,55.84
2023-03-29T10:39:29.950Z,55.27
2023-03-29T10:44:47.334Z,54.95
2023-03-29T10:50:06.185Z,56.41
2023-03-29T10:55:18.737Z,57.11
2023-03-29T11:00:40.758Z,55.51
2023-03-29T11:06:46.202Z,55.59
2023-03-29T11:13:08.433Z,55.44
2023-03-29T11:19:26.385Z,56.28
2023-03-29T11:25:19.180Z,55.56
2023-03-29T11:31:18.379Z,55.75
2023-03-29T11:37:28.148Z,55.42
2023-03-29T11:43:01.398Z,55.63
2023-03-29T11:48:14.176Z,55.77
2023-03-29T11:54:02.871Z,54.66
2023-03-29T11:59:58.817Z,53.06
2023-03-29T12:06:05.090Z,52.92
2023-03-29T12:11:49.127Z,53.45
2023-03-29T12:17:05.525Z,53.49
2023-03-29T12:22:53.328Z,52.64
2023-03-29T12:28:26.635Z,52.47
2023-03-29T12:34:36.237Z,52.49
2023-03-29T12:40:52.006Z,52.56
2023-03-29T12:46:56.057Z,51.18
2023-03-29T12:52:36.812Z,51.10
2023-03-29T12:58:08.435Z,51.03
2023-03-29T13:03:57.464Z,51.36
2023-03-29T13:09:46.510Z,50.40
2023-03-29T13:15:36.819Z,50.70
2023-03-29T13:21:39.138Z,50.76
2023-03-29T13:27:13.903Z,50.54
2023-03-29T13:33:13.897Z,49.31
2023-03-29T13:38:25.983Z,50.14
2023-03-29T13:44:08.937Z,49.75
2023-03-29T13:49:34.405Z,50.29
2023-03-29T13:55:17.998Z,50.66
2023-03-29T14:00:37.139Z,50.57
2023-03-29T14:05:44.238Z,50.89
2023-03-29T14:10:50.119Z,51.81
2023-03-29T14:16:12.990Z,50.58
2023-03-29T14:21:15.050Z,50.46
2023-03-29T14:26:22.759Z,50.63
2023-03-29T14:31:52.299Z,50.08
2023-03-29T14:36:54.477Z,49.39
2023-03-29T14:41:57.201Z,49.52
2023-03-29T14:47:03.385Z,49.83
2023-03-29T14:52:14.843Z,49.31
2023-03-29T14:57:20.789Z,49.28
2023-03-29T15:02:36.105Z,49.26
2023-03-29T15:07:43.236Z,49.55
2023-03-29T15:12:46.653Z,49.38
2023-03-29T15:17:52.898Z,49.68
2023-03-29T15:23:17.804Z,49.79
2023-03-29T15:28:44.825Z,50.59
2023-03-29T15:34:24.182Z,50.89
2023-03-29T15:39:35.652Z,50.63
2023-03-29T15:44:41.302Z,50.66
2023-03-29T15:49:53.611Z,50.55
2023-03-29T15:55:00.611Z,50.02
2023-03-29T16:00:08.024Z,50.43
2023-03-29T16:05:14.823Z,50.51
2023-03-29T16:10:21.124Z,50.88
2023-03-29T16:15:33.847Z,50.82
2023-03-29T16:20:38.086Z,51.07
2023-03-29T16:26:05.035Z,51.76
2023-03-29T16:31:17.262Z,51.18
2023-03-29T16:36:24.617Z,51.56
2023-03-29T16:41:38.698Z,51.58
2023-03-29T16:46:46.209Z,51.96
2023-03-29T16:51:48.870Z,52.55
2023-03-29T16:56:53.474Z,52.70
2023-03-29T17:01:58.467Z,52.89
2023-03-29T17:07:05.552Z,53.27
2023-03-29T17:12:08.156Z,53.12
2023-03-29T17:17:11.170Z,53.06
2023-03-29T17:22:13.281Z,52.87
2023-03-29T17:27:15.957Z,53.13
2023-03-29T17:32:20.505Z,53.22
2023-03-29T17:37:29.950Z,53.65
2023-03-29T17:42:34.296Z,53.48
2023-03-29T17:47:43.306Z,54.06
2023-03-29T17:52:48.806Z,53.87
2023-03-29T17:57:51.793Z,53.98
2023-03-29T18:02:54.495Z,54.33
2023-03-29T18:07:57.347Z,54.71
2023-03-29T18:13:01.251Z,54.95
2023-03-29T18:18:04.404Z,55.01
2023-03-29T18:23:09.194Z,55.09
2023-03-29T18:28:14.579Z,55.31
2023-03-29T18:33:25.372Z,55.79
2023-03-29T18:38:27.410Z,56.08
2023-03-29T18:43:34.012Z,56.46
2023-03-29T18:48:42.341Z,56.67
2023-03-29T18:53:44.872Z,57.08
2023-03-29T18:58:48.248Z,57.13
2023-03-29T19:03:50.305Z,57.61
2023-03-29T19:08:58.279Z,57.81
2023-03-29T19:14:00.824Z,58.18
2023-03-29T19:19:04.976Z,58.49
2023-03-29T19:24:08.162Z,58.78
2023-03-29T19:29:13.090Z,59.07
2023-03-29T19:34:21.120Z,59.30
2023-03-29T19:39:25.006Z,59.67
2023-03-29T19:44:28.277Z,59.59
2023-03-29T19:49:31.039Z,59.73
2023-03-29T19:54:33.363Z,59.73
2023-03-29T19:59:39.087Z,59.78
2023-03-29T20:04:41.745Z,59.83
2023-03-29T20:09:45.507Z,59.86
2023-03-29T20:14:56.491Z,60.02
2023-03-29T20:19:59.027Z,60.35
2023-03-29T20:25:01.080Z,60.38
2023-03-29T20:30:04.737Z,60.53
2023-03-29T20:35:07.185Z,60.64
2023-03-29T20:40:11.232Z,60.95
2023-03-29T20:45:18.659Z,61.12
2023-03-29T20:50:26.697Z,61.29
2023-03-29T20:55:30.503Z,61.27
2023-03-29T21:00:38.387Z,61.42
2023-03-29T21:05:40.845Z,61.27
2023-03-29T21:10:51.691Z,61.70
2023-03-29T21:15:57.141Z,61.78
2023-03-29T21:21:04.994Z,61.79
2023-03-29T21:26:12.691Z,62.01
2023-03-29T21:31:17.597Z,62.17
2023-03-29T21:36:20.985Z,62.25
2023-03-29T21:41:27.082Z,62.24
2023-03-29T21:46:34.277Z,62.65
2023-03-29T21:51:46.769Z,62.75
2023-03-29T21:56:51.128Z,62.76
2023-03-29T22:01:53.558Z,62.87
2023-03-29T22:06:56.174Z,62.95
2023-03-29T22:11:59.934Z,63.56
2023-03-29T22:17:07.008Z,63.27
2023-03-29T22:22:26.485Z,63.59
2023-03-29T22:27:30.702Z,63.87
2023-03-29T22:32:35.859Z,64.15
2023-03-29T22:37:44.194Z,64.22
2023-03-29T22:42:49.398Z,64.41
2023-03-29T22:48:36.028Z,64.59
2023-03-29T22:53:39.079Z,64.52
2023-03-29T22:59:06.539Z,64.74
2023-03-29T23:04:38.847Z,64.93
2023-03-29T23:10:42.921Z,65.11
2023-03-29T23:16:34.025Z,65.32
2023-03-29T23:21:47.152Z,65.65
2023-03-29T23:27:29.511Z,65.72
2023-03-29T23:33:15.823Z,65.99
2023-03-29T23:38:44.949Z,66.14
2023-03-29T23:43:57.703Z,66.38
2023-03-29T23:49:51.453Z,66.54
2023-03-29T23:55:30.897Z,66.77
